sensor_id;sensor_type;location;lat;lon;timestamp;P1;durP1;ratioP1;P2;durP2;ratioP2
80494;SDS011;69819;48.798;11.770;2023-08-24T00:01:16;4.03;;;3.72;;
80494;SDS011;69819;48.798;11.770;2023-08-24T00:03:43;4.40;;;4.00;;
80494;SDS011;69819;48.798;11.770;2023-08-24T00:06:10;3.97;;;3.72;;
80494;SDS011;69819;48.798;11.770;2023-08-24T00:08:37;6.13;;;4.05;;
80494;SDS011;69819;48.798;11.770;2023-08-24T00:11:03;5.13;;;4.65;;
80494;SDS011;69819;48.798;11.770;2023-08-24T00:13:30;4.38;;;3.95;;
80494;SDS011;69819;48.798;11.770;2023-08-24T00:15:57;4.65;;;4.25;;
80494;SDS011;69819;48.798;11.770;2023-08-24T00:18:22;5.30;;;4.80;;
80494;SDS011;69819;48.798;11.770;2023-08-24T00:20:49;4.60;;;3.92;;
80494;SDS011;69819;48.798;11.770;2023-08-24T00:23:16;4.60;;;4.20;;
80494;SDS011;69819;48.798;11.770;2023-08-24T00:25:42;4.13;;;3.83;;
80494;SDS011;69819;48.798;11.770;2023-08-24T00:28:08;5.15;;;3.97;;
80494;SDS011;69819;48.798;11.770;2023-08-24T00:30:34;4.50;;;4.15;;
80494;SDS011;69819;48.798;11.770;2023-08-24T00:33:02;4.40;;;4.00;;
80494;SDS011;69819;48.798;11.770;2023-08-24T00:35:28;4.75;;;3.95;;
80494;SDS011;69819;48.798;11.770;2023-08-24T00:37:54;4.95;;;4.45;;
80494;SDS011;69819;48.798;11.770;2023-08-24T00:40:20;4.45;;;4.13;;
80494;SDS011;69819;48.798;11.770;2023-08-24T00:42:46;4.70;;;4.28;;
80494;SDS011;69819;48.798;11.770;2023-08-24T00:45:12;5.15;;;4.65;;
80494;SDS011;69819;48.798;11.770;2023-08-24T00:47:39;4.82;;;4.43;;
80494;SDS011;69819;48.798;11.770;2023-08-24T00:50:08;5.10;;;4.18;;
80494;SDS011;69819;48.798;11.770;2023-08-24T00:52:38;5.10;;;4.70;;
80494;SDS011;69819;48.798;11.770;2023-08-24T00:55:06;5.07;;;4.60;;
80494;SDS011;69819;48.798;11.770;2023-08-24T00:57:34;5.05;;;4.60;;
80494;SDS011;69819;48.798;11.770;2023-08-24T01:00:03;4.72;;;4.32;;
80494;SDS011;69819;48.798;11.770;2023-08-24T01:02:31;5.00;;;4.28;;
80494;SDS011;69819;48.798;11.770;2023-08-24T01:04:58;5.47;;;4.97;;
80494;SDS011;69819;48.798;11.770;2023-08-24T01:07:24;5.07;;;4.68;;
80494;SDS011;69819;48.798;11.770;2023-08-24T01:09:51;4.88;;;4.47;;
80494;SDS011;69819;48.798;11.770;2023-08-24T01:15:31;4.50;;;4.10;;
80494;SDS011;69819;48.798;11.770;2023-08-24T01:18:10;4.30;;;3.97;;
80494;SDS011;69819;48.798;11.770;2023-08-24T01:20:40;5.93;;;4.60;;
80494;SDS011;69819;48.798;11.770;2023-08-24T01:23:13;4.38;;;3.97;;
80494;SDS011;69819;48.798;11.770;2023-08-24T01:26:13;4.25;;;3.95;;
80494;SDS011;69819;48.798;11.770;2023-08-24T01:28:43;4.53;;;3.92;;
80494;SDS011;69819;48.798;11.770;2023-08-24T01:31:12;4.30;;;4.00;;
80494;SDS011;69819;48.798;11.770;2023-08-24T01:33:43;4.43;;;4.13;;
80494;SDS011;69819;48.798;11.770;2023-08-24T01:36:11;5.47;;;5.00;;
80494;SDS011;69819;48.798;11.770;2023-08-24T01:38:40;4.93;;;4.53;;
80494;SDS011;69819;48.798;11.770;2023-08-24T01:41:11;5.05;;;4.65;;
80494;SDS011;69819;48.798;11.770;2023-08-24T01:43:47;5.05;;;4.65;;
80494;SDS011;69819;48.798;11.770;2023-08-24T01:46:18;5.03;;;4.63;;
80494;SDS011;69819;48.798;11.770;2023-08-24T01:48:47;4.65;;;4.35;;
80494;SDS011;69819;48.798;11.770;2023-08-24T01:51:14;5.25;;;4.75;;
80494;SDS011;69819;48.798;11.770;2023-08-24T01:53:41;4.75;;;4.35;;
80494;SDS011;69819;48.798;11.770;2023-08-24T01:56:12;5.10;;;4.70;;
80494;SDS011;69819;48.798;11.770;2023-08-24T01:58:40;5.07;;;4.68;;
80494;SDS011;69819;48.798;11.770;2023-08-24T02:01:06;5.70;;;5.03;;
80494;SDS011;69819;48.798;11.770;2023-08-24T02:03:37;5.20;;;4.70;;
80494;SDS011;69819;48.798;11.770;2023-08-24T02:06:04;5.07;;;4.57;;
80494;SDS011;69819;48.798;11.770;2023-08-24T02:08:32;5.45;;;4.95;;
80494;SDS011;69819;48.798;11.770;2023-08-24T02:10:58;4.95;;;4.55;;
80494;SDS011;69819;48.798;11.770;2023-08-24T02:13:23;5.30;;;4.90;;
80494;SDS011;69819;48.798;11.770;2023-08-24T02:15:49;5.18;;;4.78;;
80494;SDS011;69819;48.798;11.770;2023-08-24T02:18:15;5.15;;;4.75;;
80494;SDS011;69819;48.798;11.770;2023-08-24T02:20:41;5.43;;;4.93;;
80494;SDS011;69819;48.798;11.770;2023-08-24T02:23:07;4.82;;;4.43;;
80494;SDS011;69819;48.798;11.770;2023-08-24T02:25:32;5.30;;;4.88;;
80494;SDS011;69819;48.798;11.770;2023-08-24T02:27:58;4.93;;;4.53;;
80494;SDS011;69819;48.798;11.770;2023-08-24T02:30:24;4.35;;;3.95;;
80494;SDS011;69819;48.798;11.770;2023-08-24T02:32:51;5.10;;;4.63;;
80494;SDS011;69819;48.798;11.770;2023-08-24T02:35:16;5.40;;;4.90;;
80494;SDS011;69819;48.798;11.770;2023-08-24T02:37:43;5.18;;;4.63;;
80494;SDS011;69819;48.798;11.770;2023-08-24T02:40:09;4.35;;;4.00;;
80494;SDS011;69819;48.798;11.770;2023-08-24T02:42:36;4.70;;;4.30;;
80494;SDS011;69819;48.798;11.770;2023-08-24T02:45:02;4.50;;;4.10;;
80494;SDS011;69819;48.798;11.770;2023-08-24T02:47:29;4.75;;;4.35;;
80494;SDS011;69819;48.798;11.770;2023-08-24T02:49:55;4.50;;;4.20;;
80494;SDS011;69819;48.798;11.770;2023-08-24T02:52:20;4.68;;;4.28;;
80494;SDS011;69819;48.798;11.770;2023-08-24T02:54:46;5.13;;;4.63;;
80494;SDS011;69819;48.798;11.770;2023-08-24T02:57:12;4.50;;;4.10;;
80494;SDS011;69819;48.798;11.770;2023-08-24T02:59:38;4.82;;;4.43;;
80494;SDS011;69819;48.798;11.770;2023-08-24T03:02:04;4.80;;;4.40;;
80494;SDS011;69819;48.798;11.770;2023-08-24T03:04:30;5.20;;;4.80;;
80494;SDS011;69819;48.798;11.770;2023-08-24T03:06:55;4.70;;;4.30;;
80494;SDS011;69819;48.798;11.770;2023-08-24T03:09:22;4.43;;;4.03;;
80494;SDS011;69819;48.798;11.770;2023-08-24T03:11:47;4.70;;;4.30;;
80494;SDS011;69819;48.798;11.770;2023-08-24T03:14:13;4.47;;;4.07;;
80494;SDS011;69819;48.798;11.770;2023-08-24T03:16:39;5.20;;;4.43;;
80494;SDS011;69819;48.798;11.770;2023-08-24T03:19:05;4.68;;;4.25;;
80494;SDS011;69819;48.798;11.770;2023-08-24T03:21:30;4.50;;;4.13;;
80494;SDS011;69819;48.798;11.770;2023-08-24T03:23:56;4.88;;;4.47;;
80494;SDS011;69819;48.798;11.770;2023-08-24T03:26:22;4.78;;;4.47;;
80494;SDS011;69819;48.798;11.770;2023-08-24T03:28:48;4.80;;;4.35;;
80494;SDS011;69819;48.798;11.770;2023-08-24T03:31:15;5.47;;;4.97;;
80494;SDS011;69819;48.798;11.770;2023-08-24T03:33:41;6.53;;;4.95;;
80494;SDS011;69819;48.798;11.770;2023-08-24T03:36:07;5.35;;;4.85;;
80494;SDS011;69819;48.798;11.770;2023-08-24T03:38:32;4.85;;;4.45;;
80494;SDS011;69819;48.798;11.770;2023-08-24T03:41:02;4.57;;;4.28;;
80494;SDS011;69819;48.798;11.770;2023-08-24T03:43:32;5.05;;;4.65;;
80494;SDS011;69819;48.798;11.770;2023-08-24T03:46:00;7.18;;;4.35;;
80494;SDS011;69819;48.798;11.770;2023-08-24T03:48:27;5.10;;;4.68;;
80494;SDS011;69819;48.798;11.770;2023-08-24T03:50:56;5.47;;;4.75;;
80494;SDS011;69819;48.798;11.770;2023-08-24T03:53:23;4.72;;;4.22;;
80494;SDS011;69819;48.798;11.770;2023-08-24T03:55:53;4.65;;;4.22;;
80494;SDS011;69819;48.798;11.770;2023-08-24T03:58:20;4.88;;;4.40;;
80494;SDS011;69819;48.798;11.770;2023-08-24T04:00:46;5.07;;;4.57;;
80494;SDS011;69819;48.798;11.770;2023-08-24T04:03:12;4.82;;;4.53;;
80494;SDS011;69819;48.798;11.770;2023-08-24T04:05:38;5.40;;;4.63;;
80494;SDS011;69819;48.798;11.770;2023-08-24T04:08:04;4.95;;;4.55;;
80494;SDS011;69819;48.798;11.770;2023-08-24T04:10:30;5.28;;;4.38;;
80494;SDS011;69819;48.798;11.770;2023-08-24T04:12:57;5.10;;;4.70;;
80494;SDS011;69819;48.798;11.770;2023-08-24T04:15:22;4.50;;;4.18;;
80494;SDS011;69819;48.798;11.770;2023-08-24T04:17:49;5.15;;;4.65;;
80494;SDS011;69819;48.798;11.770;2023-08-24T04:20:15;4.32;;;4.00;;
80494;SDS011;69819;48.798;11.770;2023-08-24T04:22:41;4.10;;;3.80;;
80494;SDS011;69819;48.798;11.770;2023-08-24T04:25:07;5.07;;;4.68;;
80494;SDS011;69819;48.798;11.770;2023-08-24T04:27:34;5.47;;;4.72;;
80494;SDS011;69819;48.798;11.770;2023-08-24T04:30:00;4.95;;;4.38;;
80494;SDS011;69819;48.798;11.770;2023-08-24T04:32:26;4.80;;;4.25;;
80494;SDS011;69819;48.798;11.770;2023-08-24T04:34:53;4.32;;;4.00;;
80494;SDS011;69819;48.798;11.770;2023-08-24T04:37:19;4.80;;;4.40;;
80494;SDS011;69819;48.798;11.770;2023-08-24T04:39:44;4.90;;;4.50;;
80494;SDS011;69819;48.798;11.770;2023-08-24T04:42:11;4.78;;;4.30;;
80494;SDS011;69819;48.798;11.770;2023-08-24T04:44:38;4.38;;;3.97;;
80494;SDS011;69819;48.798;11.770;2023-08-24T04:47:04;4.53;;;4.22;;
80494;SDS011;69819;48.798;11.770;2023-08-24T04:49:30;4.93;;;4.53;;
80494;SDS011;69819;48.798;11.770;2023-08-24T04:51:56;5.00;;;4.60;;
80494;SDS011;69819;48.798;11.770;2023-08-24T04:54:21;4.88;;;4.43;;
80494;SDS011;69819;48.798;11.770;2023-08-24T04:56:47;5.13;;;4.72;;
80494;SDS011;69819;48.798;11.770;2023-08-24T04:59:13;5.15;;;4.72;;
80494;SDS011;69819;48.798;11.770;2023-08-24T05:01:39;5.00;;;4.60;;
80494;SDS011;69819;48.798;11.770;2023-08-24T05:04:05;4.78;;;4.38;;
80494;SDS011;69819;48.798;11.770;2023-08-24T05:06:30;4.97;;;4.57;;
80494;SDS011;69819;48.798;11.770;2023-08-24T05:08:56;4.40;;;4.07;;
80494;SDS011;69819;48.798;11.770;2023-08-24T05:11:23;4.78;;;4.38;;
80494;SDS011;69819;48.798;11.770;2023-08-24T05:13:51;8.77;;;4.78;;
80494;SDS011;69819;48.798;11.770;2023-08-24T05:16:17;4.28;;;3.97;;
80494;SDS011;69819;48.798;11.770;2023-08-24T05:18:43;4.55;;;4.25;;
80494;SDS011;69819;48.798;11.770;2023-08-24T05:21:09;5.40;;;4.90;;
80494;SDS011;69819;48.798;11.770;2023-08-24T05:23:34;4.63;;;4.25;;
80494;SDS011;69819;48.798;11.770;2023-08-24T05:26:01;4.97;;;4.57;;
80494;SDS011;69819;48.798;11.770;2023-08-24T05:28:28;5.13;;;4.57;;
80494;SDS011;69819;48.798;11.770;2023-08-24T05:30:56;4.53;;;3.95;;
80494;SDS011;69819;48.798;11.770;2023-08-24T05:33:22;4.28;;;3.97;;
80494;SDS011;69819;48.798;11.770;2023-08-24T05:35:50;4.43;;;4.03;;
80494;SDS011;69819;48.798;11.770;2023-08-24T05:38:17;4.53;;;4.13;;
80494;SDS011;69819;48.798;11.770;2023-08-24T05:40:43;4.43;;;4.07;;
80494;SDS011;69819;48.798;11.770;2023-08-24T05:43:13;4.35;;;4.03;;
80494;SDS011;69819;48.798;11.770;2023-08-24T05:45:39;4.47;;;4.07;;
80494;SDS011;69819;48.798;11.770;2023-08-24T05:48:05;4.53;;;4.07;;
80494;SDS011;69819;48.798;11.770;2023-08-24T05:50:32;4.80;;;4.40;;
80494;SDS011;69819;48.798;11.770;2023-08-24T05:52:59;4.95;;;4.13;;
80494;SDS011;69819;48.798;11.770;2023-08-24T05:55:25;4.38;;;4.00;;
80494;SDS011;69819;48.798;11.770;2023-08-24T05:57:50;4.13;;;3.83;;
80494;SDS011;69819;48.798;11.770;2023-08-24T06:00:16;4.13;;;3.83;;
80494;SDS011;69819;48.798;11.770;2023-08-24T06:02:43;4.15;;;3.85;;
80494;SDS011;69819;48.798;11.770;2023-08-24T06:05:08;4.03;;;3.70;;
80494;SDS011;69819;48.798;11.770;2023-08-24T06:07:35;4.93;;;4.00;;
80494;SDS011;69819;48.798;11.770;2023-08-24T06:10:01;4.18;;;3.80;;
80494;SDS011;69819;48.798;11.770;2023-08-24T06:12:27;4.07;;;3.78;;
80494;SDS011;69819;48.798;11.770;2023-08-24T06:14:53;4.20;;;3.90;;
80494;SDS011;69819;48.798;11.770;2023-08-24T06:17:19;4.40;;;4.00;;
80494;SDS011;69819;48.798;11.770;2023-08-24T06:19:44;5.53;;;4.25;;
80494;SDS011;69819;48.798;11.770;2023-08-24T06:22:10;4.53;;;4.20;;
80494;SDS011;69819;48.798;11.770;2023-08-24T06:24:36;4.82;;;4.43;;
80494;SDS011;69819;48.798;11.770;2023-08-24T06:27:01;4.40;;;4.00;;
80494;SDS011;69819;48.798;11.770;2023-08-24T06:29:30;4.53;;;4.13;;
80494;SDS011;69819;48.798;11.770;2023-08-24T06:31:56;4.13;;;3.80;;
80494;SDS011;69819;48.798;11.770;2023-08-24T06:34:22;4.10;;;3.80;;
80494;SDS011;69819;48.798;11.770;2023-08-24T06:36:50;4.85;;;4.20;;
80494;SDS011;69819;48.798;11.770;2023-08-24T06:39:18;4.32;;;3.92;;
80494;SDS011;69819;48.798;11.770;2023-08-24T06:41:44;4.93;;;4.10;;
80494;SDS011;69819;48.798;11.770;2023-08-24T06:44:10;4.05;;;3.75;;
80494;SDS011;69819;48.798;11.770;2023-08-24T06:46:35;3.78;;;3.47;;
80494;SDS011;69819;48.798;11.770;2023-08-24T06:49:01;3.83;;;3.53;;
80494;SDS011;69819;48.798;11.770;2023-08-24T06:51:28;3.28;;;2.97;;
80494;SDS011;69819;48.798;11.770;2023-08-24T06:53:54;3.58;;;3.28;;
80494;SDS011;69819;48.798;11.770;2023-08-24T06:56:19;3.25;;;3.05;;
80494;SDS011;69819;48.798;11.770;2023-08-24T06:58:47;3.22;;;3.03;;
80494;SDS011;69819;48.798;11.770;2023-08-24T07:01:13;6.18;;;3.15;;
80494;SDS011;69819;48.798;11.770;2023-08-24T07:03:39;4.90;;;2.75;;
80494;SDS011;69819;48.798;11.770;2023-08-24T07:06:05;3.92;;;2.80;;
80494;SDS011;69819;48.798;11.770;2023-08-24T07:08:32;2.40;;;2.20;;
80494;SDS011;69819;48.798;11.770;2023-08-24T07:10:59;2.63;;;2.33;;
80494;SDS011;69819;48.798;11.770;2023-08-24T07:13:27;3.10;;;2.55;;
80494;SDS011;69819;48.798;11.770;2023-08-24T07:15:52;2.72;;;2.53;;
80494;SDS011;69819;48.798;11.770;2023-08-24T07:18:20;2.63;;;2.40;;
80494;SDS011;69819;48.798;11.770;2023-08-24T07:20:46;2.70;;;2.50;;
80494;SDS011;69819;48.798;11.770;2023-08-24T07:23:12;2.22;;;1.95;;
80494;SDS011;69819;48.798;11.770;2023-08-24T07:25:38;2.72;;;2.28;;
80494;SDS011;69819;48.798;11.770;2023-08-24T07:28:04;2.50;;;2.40;;
80494;SDS011;69819;48.798;11.770;2023-08-24T07:30:31;3.70;;;2.10;;
80494;SDS011;69819;48.798;11.770;2023-08-24T07:32:57;3.15;;;2.30;;
80494;SDS011;69819;48.798;11.770;2023-08-24T07:35:23;2.38;;;2.17;;
80494;SDS011;69819;48.798;11.770;2023-08-24T07:37:52;2.47;;;2.22;;
80494;SDS011;69819;48.798;11.770;2023-08-24T07:40:18;2.00;;;1.90;;
80494;SDS011;69819;48.798;11.770;2023-08-24T07:45:12;2.42;;;2.22;;
80494;SDS011;69819;48.798;11.770;2023-08-24T07:47:39;2.45;;;2.25;;
80494;SDS011;69819;48.798;11.770;2023-08-24T07:50:06;2.30;;;2.10;;
80494;SDS011;69819;48.798;11.770;2023-08-24T07:52:33;2.40;;;2.20;;
80494;SDS011;69819;48.798;11.770;2023-08-24T07:54:59;2.30;;;2.20;;
80494;SDS011;69819;48.798;11.770;2023-08-24T07:57:28;2.28;;;2.17;;
80494;SDS011;69819;48.798;11.770;2023-08-24T07:59:54;2.78;;;1.73;;
80494;SDS011;69819;48.798;11.770;2023-08-24T08:02:20;2.10;;;2.00;;
80494;SDS011;69819;48.798;11.770;2023-08-24T08:04:46;2.35;;;2.15;;
80494;SDS011;69819;48.798;11.770;2023-08-24T08:07:12;2.20;;;1.80;;
80494;SDS011;69819;48.798;11.770;2023-08-24T08:09:37;1.73;;;1.65;;
80494;SDS011;69819;48.798;11.770;2023-08-24T08:12:03;2.70;;;2.50;;
80494;SDS011;69819;48.798;11.770;2023-08-24T08:14:29;2.10;;;2.00;;
80494;SDS011;69819;48.798;11.770;2023-08-24T08:16:56;2.35;;;2.15;;
80494;SDS011;69819;48.798;11.770;2023-08-24T08:19:21;1.95;;;1.85;;
80494;SDS011;69819;48.798;11.770;2023-08-24T08:21:50;2.17;;;2.08;;
80494;SDS011;69819;48.798;11.770;2023-08-24T08:24:16;2.42;;;2.22;;
80494;SDS011;69819;48.798;11.770;2023-08-24T08:26:42;1.98;;;1.88;;
80494;SDS011;69819;48.798;11.770;2023-08-24T08:29:08;2.20;;;2.05;;
80494;SDS011;69819;48.798;11.770;2023-08-24T08:31:34;1.70;;;1.63;;
80494;SDS011;69819;48.798;11.770;2023-08-24T08:33:59;1.80;;;1.70;;
80494;SDS011;69819;48.798;11.770;2023-08-24T08:36:25;1.98;;;1.88;;
80494;SDS011;69819;48.798;11.770;2023-08-24T08:38:51;1.83;;;1.70;;
80494;SDS011;69819;48.798;11.770;2023-08-24T08:41:17;1.90;;;1.80;;
80494;SDS011;69819;48.798;11.770;2023-08-24T08:43:47;1.38;;;1.38;;
80494;SDS011;69819;48.798;11.770;2023-08-24T08:46:14;2.08;;;1.90;;
80494;SDS011;69819;48.798;11.770;2023-08-24T08:48:41;1.98;;;1.88;;
80494;SDS011;69819;48.798;11.770;2023-08-24T08:51:10;2.08;;;1.70;;
80494;SDS011;69819;48.798;11.770;2023-08-24T08:53:38;3.90;;;1.90;;
80494;SDS011;69819;48.798;11.770;2023-08-24T08:56:04;1.95;;;1.50;;
80494;SDS011;69819;48.798;11.770;2023-08-24T08:58:32;2.70;;;2.17;;
80494;SDS011;69819;48.798;11.770;2023-08-24T09:01:01;1.77;;;1.67;;
80494;SDS011;69819;48.798;11.770;2023-08-24T09:03:29;1.92;;;1.83;;
80494;SDS011;69819;48.798;11.770;2023-08-24T09:05:57;2.38;;;1.70;;
80494;SDS011;69819;48.798;11.770;2023-08-24T09:08:24;4.43;;;2.05;;
80494;SDS011;69819;48.798;11.770;2023-08-24T09:10:52;2.72;;;1.83;;
80494;SDS011;69819;48.798;11.770;2023-08-24T09:13:20;2.42;;;2.22;;
80494;SDS011;69819;48.798;11.770;2023-08-24T09:15:46;2.03;;;1.85;;
80494;SDS011;69819;48.798;11.770;2023-08-24T09:18:12;2.55;;;1.77;;
80494;SDS011;69819;48.798;11.770;2023-08-24T09:20:38;2.92;;;1.95;;
80494;SDS011;69819;48.798;11.770;2023-08-24T09:23:03;2.67;;;2.00;;
80494;SDS011;69819;48.798;11.770;2023-08-24T09:25:29;2.00;;;1.77;;
80494;SDS011;69819;48.798;11.770;2023-08-24T09:27:56;2.00;;;1.80;;
80494;SDS011;69819;48.798;11.770;2023-08-24T09:30:23;1.90;;;1.80;;
80494;SDS011;69819;48.798;11.770;2023-08-24T09:33:03;2.10;;;2.00;;
80494;SDS011;69819;48.798;11.770;2023-08-24T09:35:36;1.80;;;1.70;;
80494;SDS011;69819;48.798;11.770;2023-08-24T09:40:50;1.75;;;1.65;;
80494;SDS011;69819;48.798;11.770;2023-08-24T09:43:18;2.00;;;1.80;;
80494;SDS011;69819;48.798;11.770;2023-08-24T09:45:51;2.00;;;1.77;;
80494;SDS011;69819;48.798;11.770;2023-08-24T09:48:17;2.85;;;2.05;;
80494;SDS011;69819;48.798;11.770;2023-08-24T09:50:48;2.20;;;1.73;;
80494;SDS011;69819;48.798;11.770;2023-08-24T09:53:20;1.95;;;1.85;;
80494;SDS011;69819;48.798;11.770;2023-08-24T09:56:21;1.77;;;1.73;;
80494;SDS011;69819;48.798;11.770;2023-08-24T09:58:41;1.70;;;1.60;;
80494;SDS011;69819;48.798;11.770;2023-08-24T10:01:09;2.22;;;1.77;;
80494;SDS011;69819;48.798;11.770;2023-08-24T10:03:35;1.77;;;1.67;;
80494;SDS011;69819;48.798;11.770;2023-08-24T10:06:05;2.05;;;1.85;;
80494;SDS011;69819;48.798;11.770;2023-08-24T10:08:37;1.77;;;1.67;;
80494;SDS011;69819;48.798;11.770;2023-08-24T10:11:12;2.10;;;1.90;;
80494;SDS011;69819;48.798;11.770;2023-08-24T10:13:52;3.25;;;1.95;;
80494;SDS011;69819;48.798;11.770;2023-08-24T10:16:27;2.40;;;1.88;;
80494;SDS011;69819;48.798;11.770;2023-08-24T10:18:55;2.25;;;2.00;;
80494;SDS011;69819;48.798;11.770;2023-08-24T10:21:21;1.70;;;1.60;;
80494;SDS011;69819;48.798;11.770;2023-08-24T10:23:51;1.85;;;1.75;;
80494;SDS011;69819;48.798;11.770;2023-08-24T10:26:20;2.28;;;1.85;;
80494;SDS011;69819;48.798;11.770;2023-08-24T10:28:48;2.20;;;1.98;;
80494;SDS011;69819;48.798;11.770;2023-08-24T10:31:16;2.20;;;1.95;;
80494;SDS011;69819;48.798;11.770;2023-08-24T10:33:44;2.53;;;2.33;;
80494;SDS011;69819;48.798;11.770;2023-08-24T10:36:12;2.08;;;1.98;;
80494;SDS011;69819;48.798;11.770;2023-08-24T10:38:42;1.75;;;1.65;;
80494;SDS011;69819;48.798;11.770;2023-08-24T10:41:08;2.00;;;1.90;;
80494;SDS011;69819;48.798;11.770;2023-08-24T10:43:39;1.98;;;1.88;;
80494;SDS011;69819;48.798;11.770;2023-08-24T10:46:13;2.65;;;2.00;;
80494;SDS011;69819;48.798;11.770;2023-08-24T10:53:47;2.53;;;2.33;;
80494;SDS011;69819;48.798;11.770;2023-08-24T10:56:19;1.98;;;1.88;;
80494;SDS011;69819;48.798;11.770;2023-08-24T10:58:46;2.50;;;2.30;;
80494;SDS011;69819;48.798;11.770;2023-08-24T11:01:40;1.85;;;1.75;;
80494;SDS011;69819;48.798;11.770;2023-08-24T11:04:24;3.58;;;2.30;;
80494;SDS011;69819;48.798;11.770;2023-08-24T11:06:51;2.50;;;2.30;;
80494;SDS011;69819;48.798;11.770;2023-08-24T11:09:22;2.35;;;2.20;;
80494;SDS011;69819;48.798;11.770;2023-08-24T11:11:56;2.42;;;2.22;;
80494;SDS011;69819;48.798;11.770;2023-08-24T11:14:27;2.40;;;2.15;;
80494;SDS011;69819;48.798;11.770;2023-08-24T11:16:59;2.47;;;2.28;;
80494;SDS011;69819;48.798;11.770;2023-08-24T11:19:49;2.50;;;2.30;;
80494;SDS011;69819;48.798;11.770;2023-08-24T11:22:17;2.42;;;2.28;;
80494;SDS011;69819;48.798;11.770;2023-08-24T11:24:44;2.58;;;2.10;;
80494;SDS011;69819;48.798;11.770;2023-08-24T11:27:10;2.67;;;2.47;;
80494;SDS011;69819;48.798;11.770;2023-08-24T11:29:36;2.28;;;2.08;;
80494;SDS011;69819;48.798;11.770;2023-08-24T11:32:02;2.55;;;2.35;;
80494;SDS011;69819;48.798;11.770;2023-08-24T11:34:29;2.55;;;2.35;;
80494;SDS011;69819;48.798;11.770;2023-08-24T11:36:55;2.83;;;2.60;;
80494;SDS011;69819;48.798;11.770;2023-08-24T11:39:22;4.05;;;2.90;;
80494;SDS011;69819;48.798;11.770;2023-08-24T11:42:03;2.78;;;2.30;;
80494;SDS011;69819;48.798;11.770;2023-08-24T11:44:46;2.17;;;2.08;;
80494;SDS011;69819;48.798;11.770;2023-08-24T11:47:13;3.15;;;2.38;;
80494;SDS011;69819;48.798;11.770;2023-08-24T11:49:40;2.40;;;2.20;;
80494;SDS011;69819;48.798;11.770;2023-08-24T11:52:07;3.45;;;2.40;;
80494;SDS011;69819;48.798;11.770;2023-08-24T11:54:33;2.53;;;2.33;;
80494;SDS011;69819;48.798;11.770;2023-08-24T11:57:05;2.40;;;2.30;;
80494;SDS011;69819;48.798;11.770;2023-08-24T11:59:35;2.60;;;2.40;;
80494;SDS011;69819;48.798;11.770;2023-08-24T12:02:03;2.67;;;2.47;;
80494;SDS011;69819;48.798;11.770;2023-08-24T12:04:43;2.22;;;2.13;;
80494;SDS011;69819;48.798;11.770;2023-08-24T12:07:10;2.33;;;2.17;;
80494;SDS011;69819;48.798;11.770;2023-08-24T12:09:40;3.10;;;2.28;;
80494;SDS011;69819;48.798;11.770;2023-08-24T12:12:13;2.55;;;2.35;;
80494;SDS011;69819;48.798;11.770;2023-08-24T12:14:41;2.92;;;2.22;;
80494;SDS011;69819;48.798;11.770;2023-08-24T12:17:11;2.45;;;2.17;;
80494;SDS011;69819;48.798;11.770;2023-08-24T12:19:57;2.03;;;1.92;;
80494;SDS011;69819;48.798;11.770;2023-08-24T12:22:26;2.85;;;2.08;;
80494;SDS011;69819;48.798;11.770;2023-08-24T12:24:52;2.60;;;2.40;;
80494;SDS011;69819;48.798;11.770;2023-08-24T12:27:22;4.70;;;2.38;;
80494;SDS011;69819;48.798;11.770;2023-08-24T12:29:51;2.33;;;2.13;;
80494;SDS011;69819;48.798;11.770;2023-08-24T12:32:17;2.30;;;2.20;;
80494;SDS011;69819;48.798;11.770;2023-08-24T12:34:47;2.60;;;2.40;;
80494;SDS011;69819;48.798;11.770;2023-08-24T12:37:13;3.05;;;2.10;;
80494;SDS011;69819;48.798;11.770;2023-08-24T12:39:39;3.08;;;2.40;;
80494;SDS011;69819;48.798;11.770;2023-08-24T12:42:05;2.60;;;2.20;;
80494;SDS011;69819;48.798;11.770;2023-08-24T12:44:32;2.42;;;2.10;;
80494;SDS011;69819;48.798;11.770;2023-08-24T12:46:58;3.28;;;2.47;;
80494;SDS011;69819;48.798;11.770;2023-08-24T12:49:24;2.38;;;2.17;;
80494;SDS011;69819;48.798;11.770;2023-08-24T12:51:50;2.47;;;2.38;;
80494;SDS011;69819;48.798;11.770;2023-08-24T12:54:16;2.78;;;2.20;;
80494;SDS011;69819;48.798;11.770;2023-08-24T12:56:41;2.38;;;2.17;;
80494;SDS011;69819;48.798;11.770;2023-08-24T12:59:07;2.35;;;1.92;;
80494;SDS011;69819;48.798;11.770;2023-08-24T13:01:34;2.45;;;2.28;;
80494;SDS011;69819;48.798;11.770;2023-08-24T13:03:59;2.35;;;2.17;;
80494;SDS011;69819;48.798;11.770;2023-08-24T13:06:25;2.65;;;2.42;;
80494;SDS011;69819;48.798;11.770;2023-08-24T13:08:54;2.67;;;2.47;;
80494;SDS011;69819;48.798;11.770;2023-08-24T13:11:21;3.92;;;2.65;;
80494;SDS011;69819;48.798;11.770;2023-08-24T13:13:47;4.10;;;2.45;;
80494;SDS011;69819;48.798;11.770;2023-08-24T13:16:14;2.40;;;2.20;;
80494;SDS011;69819;48.798;11.770;2023-08-24T13:18:40;5.55;;;2.45;;
80494;SDS011;69819;48.798;11.770;2023-08-24T13:21:07;3.35;;;2.85;;
80494;SDS011;69819;48.798;11.770;2023-08-24T13:23:33;7.03;;;2.53;;
80494;SDS011;69819;48.798;11.770;2023-08-24T13:25:59;3.33;;;2.50;;
80494;SDS011;69819;48.798;11.770;2023-08-24T13:28:25;2.53;;;2.33;;
80494;SDS011;69819;48.798;11.770;2023-08-24T13:30:51;3.10;;;2.28;;
80494;SDS011;69819;48.798;11.770;2023-08-24T13:33:17;5.47;;;2.42;;
80494;SDS011;69819;48.798;11.770;2023-08-24T13:35:46;2.70;;;2.22;;
80494;SDS011;69819;48.798;11.770;2023-08-24T13:38:12;2.45;;;2.35;;
80494;SDS011;69819;48.798;11.770;2023-08-24T13:40:37;2.20;;;2.10;;
80494;SDS011;69819;48.798;11.770;2023-08-24T13:43:03;3.35;;;2.30;;
80494;SDS011;69819;48.798;11.770;2023-08-24T13:45:29;2.53;;;2.33;;
80494;SDS011;69819;48.798;11.770;2023-08-24T13:47:56;4.38;;;3.03;;
80494;SDS011;69819;48.798;11.770;2023-08-24T13:50:22;3.10;;;2.47;;
80494;SDS011;69819;48.798;11.770;2023-08-24T13:52:48;2.83;;;2.40;;
80494;SDS011;69819;48.798;11.770;2023-08-24T13:55:14;2.85;;;2.47;;
80494;SDS011;69819;48.798;11.770;2023-08-24T13:57:42;3.72;;;2.35;;
80494;SDS011;69819;48.798;11.770;2023-08-24T14:00:08;5.65;;;2.80;;
80494;SDS011;69819;48.798;11.770;2023-08-24T14:02:35;3.10;;;2.42;;
80494;SDS011;69819;48.798;11.770;2023-08-24T14:05:01;2.60;;;2.40;;
80494;SDS011;69819;48.798;11.770;2023-08-24T14:07:27;2.60;;;2.40;;
80494;SDS011;69819;48.798;11.770;2023-08-24T14:09:53;3.78;;;2.50;;
80494;SDS011;69819;48.798;11.770;2023-08-24T14:12:18;2.97;;;2.40;;
80494;SDS011;69819;48.798;11.770;2023-08-24T14:14:44;2.53;;;2.33;;
80494;SDS011;69819;48.798;11.770;2023-08-24T14:17:10;3.15;;;2.70;;
80494;SDS011;69819;48.798;11.770;2023-08-24T14:19:35;3.15;;;2.60;;
80494;SDS011;69819;48.798;11.770;2023-08-24T14:22:01;2.83;;;2.20;;
80494;SDS011;69819;48.798;11.770;2023-08-24T14:24:27;3.25;;;2.20;;
80494;SDS011;69819;48.798;11.770;2023-08-24T14:26:54;2.85;;;2.47;;
80494;SDS011;69819;48.798;11.770;2023-08-24T14:29:20;2.85;;;2.50;;
80494;SDS011;69819;48.798;11.770;2023-08-24T14:31:46;2.47;;;2.28;;
80494;SDS011;69819;48.798;11.770;2023-08-24T14:34:11;6.85;;;2.50;;
80494;SDS011;69819;48.798;11.770;2023-08-24T14:36:37;2.40;;;2.28;;
80494;SDS011;69819;48.798;11.770;2023-08-24T14:39:03;2.63;;;2.42;;
80494;SDS011;69819;48.798;11.770;2023-08-24T14:41:29;2.60;;;2.40;;
80494;SDS011;69819;48.798;11.770;2023-08-24T14:43:55;2.47;;;2.28;;
80494;SDS011;69819;48.798;11.770;2023-08-24T14:46:20;2.58;;;2.38;;
80494;SDS011;69819;48.798;11.770;2023-08-24T14:48:46;4.18;;;2.63;;